Time;durP1;ratioP1;P1;durP2;ratioP2;P2;SDS_P1;SDS_P2;PMS_P1;PMS_P2;Temp;Humidity;BMP_temperature;BMP_pressure;BME280_temperature;BME280_humidity;BME280_pressure;Samples;Min_cycle;Max_cycle;Signal;HPM_P1;HPM_P2
2022/05/01 00:01:02;;;;;;;4.68;3.20;;;;;;;;;;4986311;28;20269;-56
2022/05/01 00:03:34;;;;;;;3.88;3.58;;;;;;;;;;4983452;28;20207;-55
2022/05/01 00:06:01;;;;;;;3.72;3.45;;;;;;;;;;4981299;28;20270;-55
2022/05/01 00:08:29;;;;;;;4.20;3.60;;;;;;;;;;4987043;28;20218;-55
2022/05/01 00:10:58;;;;;;;3.40;3.20;;;;;;;;;;4985816;28;20586;-55
2022/05/01 00:13:26;;;;;;;3.70;3.40;;;;;;;;;;4982184;28;20227;-55
2022/05/01 00:15:53;;;;;;;3.83;3.53;;;;;;;;;;5000581;28;20211;-55
2022/05/01 00:18:21;;;;;;;3.75;3.45;;;;;;;;;;5000132;28;20205;-55
2022/05/01 00:20:48;;;;;;;3.97;3.67;;;;;;;;;;5000667;28;20290;-56
2022/05/01 00:23:16;;;;;;;3.85;3.55;;;;;;;;;;5000785;28;20207;-56
2022/05/01 00:25:44;;;;;;;3.47;3.22;;;;;;;;;;4997737;28;20207;-56
2022/05/01 00:28:15;;;;;;;3.35;3.15;;;;;;;;;;4980395;28;20235;-56
2022/05/01 00:30:43;;;;;;;3.80;3.50;;;;;;;;;;4980389;28;20239;-56
2022/05/01 00:38:41;;;;;;;3.58;3.28;;;;;;;;;;4985065;28;20258;-56
2022/05/01 00:41:08;;;;;;;3.85;3.55;;;;;;;;;;4983038;28;20210;-56
2022/05/01 00:43:56;;;;;;;3.40;3.20;;;;;;;;;;4999117;28;20219;-55
2022/05/01 00:46:24;;;;;;;3.70;3.40;;;;;;;;;;4999592;28;20207;-56
2022/05/01 00:48:52;;;;;;;3.35;3.15;;;;;;;;;;4999275;28;20227;-56
2022/05/01 00:51:21;;;;;;;3.30;3.10;;;;;;;;;;4999453;28;20217;-56
2022/05/01 00:53:49;;;;;;;3.10;2.90;;;;;;;;;;4999354;28;20636;-56
2022/05/01 00:56:16;;;;;;;3.63;3.33;;;;;;;;;;4999671;28;20254;-56
2022/05/01 00:58:46;;;;;;;3.40;3.10;;;;;;;;;;4980135;28;20262;-56
2022/05/01 01:01:14;;;;;;;3.38;3.17;;;;;;;;;;4982059;28;20207;-56
2022/05/01 01:03:42;;;;;;;3.70;3.40;;;;;;;;;;4998810;28;20199;-57
2022/05/01 01:06:10;;;;;;;3.15;2.95;;;;;;;;;;4999435;28;20238;-57
2022/05/01 01:08:38;;;;;;;3.75;3.45;;;;;;;;;;4987304;28;20238;-56
2022/05/01 01:11:05;;;;;;;3.38;3.15;;;;;;;;;;4979744;28;20608;-56
2022/05/01 01:13:33;;;;;;;3.80;3.22;;;;;;;;;;4979645;28;20212;-57
2022/05/01 01:16:04;;;;;;;8.17;3.77;;;;;;;;;;4979358;28;20459;-60
2022/05/01 01:18:32;;;;;;;112.47;7.60;;;;;;;;;;4997489;28;20233;-62
2022/05/01 01:21:01;;;;;;;3.78;3.10;;;;;;;;;;4997117;28;20210;-60
2022/05/01 01:23:30;;;;;;;7.32;2.70;;;;;;;;;;4998553;28;20203;-61
2022/05/01 01:25:58;;;;;;;4.57;3.30;;;;;;;;;;4998681;28;20203;-60
2022/05/01 01:28:26;;;;;;;4.07;3.20;;;;;;;;;;4998741;28;20640;-61
2022/05/01 01:33:38;;;;;;;5.30;3.22;;;;;;;;;;4985918;28;20584;-61
2022/05/01 01:36:08;;;;;;;5.78;3.50;;;;;;;;;;4979131;28;20214;-60
2022/05/01 01:38:35;;;;;;;4.30;3.05;;;;;;;;;;4989642;28;20234;-61
2022/05/01 01:41:07;;;;;;;6.75;3.60;;;;;;;;;;4998448;28;20211;-61
2022/05/01 01:43:35;;;;;;;4.28;3.03;;;;;;;;;;4983913;28;20485;-61
2022/05/01 01:46:03;;;;;;;4.45;3.15;;;;;;;;;;4978634;28;20286;-61
2022/05/01 01:48:30;;;;;;;5.00;3.50;;;;;;;;;;4979283;28;20250;-61
2022/05/01 01:50:58;;;;;;;4.35;3.08;;;;;;;;;;4978272;28;20204;-61
2022/05/01 01:53:27;;;;;;;8.10;3.08;;;;;;;;;;4978234;28;20216;-61
2022/05/01 01:55:55;;;;;;;4.10;3.00;;;;;;;;;;4971014;28;20208;-61
2022/05/01 01:58:23;;;;;;;3.40;3.10;;;;;;;;;;4979462;28;20552;-61
2022/05/01 02:00:50;;;;;;;3.72;3.25;;;;;;;;;;4982351;28;20214;-61
2022/05/01 02:03:17;;;;;;;4.35;3.00;;;;;;;;;;4997496;28;20207;-61
2022/05/01 02:05:46;;;;;;;3.60;3.30;;;;;;;;;;4986142;28;20202;-61
2022/05/01 02:08:14;;;;;;;3.67;3.22;;;;;;;;;;4981753;28;20507;-61
2022/05/01 02:10:43;;;;;;;3.17;2.88;;;;;;;;;;4986622;28;20210;-61
2022/05/01 02:13:11;;;;;;;3.28;3.00;;;;;;;;;;4978457;28;20234;-61
2022/05/01 02:15:38;;;;;;;3.13;2.70;;;;;;;;;;4996724;28;20214;-61
2022/05/01 02:18:07;;;;;;;2.92;2.72;;;;;;;;;;4997607;28;20490;-61
2022/05/01 02:23:16;;;;;;;3.33;3.05;;;;;;;;;;4997135;28;20195;-61
2022/05/01 02:25:45;;;;;;;3.55;3.25;;;;;;;;;;4995367;28;20207;-61
2022/05/01 02:28:12;;;;;;;3.28;3.00;;;;;;;;;;4977719;28;20212;-61
2022/05/01 02:30:40;;;;;;;3.85;3.47;;;;;;;;;;4977945;28;20269;-61
2022/05/01 02:33:08;;;;;;;3.55;3.25;;;;;;;;;;4977701;28;20214;-61
2022/05/01 02:35:36;;;;;;;2.80;2.60;;;;;;;;;;4977890;28;20207;-61
2022/05/01 02:38:04;;;;;;;2.95;2.75;;;;;;;;;;4983455;28;20215;-61
2022/05/01 02:40:32;;;;;;;3.13;2.90;;;;;;;;;;4977699;28;20211;-61
2022/05/01 02:43:01;;;;;;;3.67;3.28;;;;;;;;;;4988403;28;20203;-60
2022/05/01 02:45:28;;;;;;;2.80;2.60;;;;;;;;;;4997644;28;20207;-60
2022/05/01 02:47:56;;;;;;;3.20;2.90;;;;;;;;;;4996611;28;20225;-61
2022/05/01 02:50:24;;;;;;;3.20;2.90;;;;;;;;;;4995702;28;20230;-61
2022/05/01 02:52:52;;;;;;;3.10;2.90;;;;;;;;;;4977664;28;20222;-61
2022/05/01 02:55:20;;;;;;;3.00;2.80;;;;;;;;;;4977527;28;20207;-61
2022/05/01 02:57:48;;;;;;;3.28;3.08;;;;;;;;;;4976993;28;20204;-60
2022/05/01 03:00:17;;;;;;;3.30;2.95;;;;;;;;;;4977506;28;20492;-62
2022/05/01 03:02:46;;;;;;;3.17;2.97;;;;;;;;;;4977575;28;20294;-61
2022/05/01 03:05:14;;;;;;;3.30;3.10;;;;;;;;;;4978912;28;20203;-60
2022/05/01 03:07:41;;;;;;;2.92;2.72;;;;;;;;;;4984871;28;20208;-61
2022/05/01 03:10:10;;;;;;;3.05;2.85;;;;;;;;;;4977468;28;20235;-61
2022/05/01 03:12:38;;;;;;;2.88;2.67;;;;;;;;;;4977476;28;20212;-61
2022/05/01 03:15:06;;;;;;;3.20;2.90;;;;;;;;;;4977859;28;20207;-60
2022/05/01 03:23:00;;;;;;;3.10;2.90;;;;;;;;;;4986476;28;20342;-60
2022/05/01 03:25:28;;;;;;;3.00;2.80;;;;;;;;;;5000952;28;20206;-61
2022/05/01 03:27:55;;;;;;;3.22;2.92;;;;;;;;;;5000606;28;20211;-60
2022/05/01 03:30:23;;;;;;;3.20;3.00;;;;;;;;;;5000875;28;20741;-61
2022/05/01 03:32:53;;;;;;;2.92;2.72;;;;;;;;;;4987082;28;20212;-61
2022/05/01 03:35:20;;;;;;;2.88;2.67;;;;;;;;;;4981318;28;20203;-60
2022/05/01 03:37:48;;;;;;;2.60;2.40;;;;;;;;;;4982201;28;20210;-61
2022/05/01 03:40:16;;;;;;;2.90;2.70;;;;;;;;;;4999249;28;20504;-61
2022/05/01 03:42:44;;;;;;;2.85;2.65;;;;;;;;;;4999553;28;20274;-60
2022/05/01 03:45:13;;;;;;;2.95;2.75;;;;;;;;;;5000126;28;20207;-61
2022/05/01 03:47:40;;;;;;;2.90;2.70;;;;;;;;;;4988100;28;20204;-61
2022/05/01 03:50:09;;;;;;;2.97;2.70;;;;;;;;;;4981862;28;20227;-61
2022/05/01 03:52:37;;;;;;;2.83;2.63;;;;;;;;;;4980566;28;20226;-61
2022/05/01 03:55:04;;;;;;;2.75;2.55;;;;;;;;;;4980447;28;20208;-60
2022/05/01 03:57:32;;;;;;;2.70;2.50;;;;;;;;;;4980490;28;20203;-61
2022/05/01 04:00:00;;;;;;;2.92;2.72;;;;;;;;;;4981010;28;20211;-61
2022/05/01 04:02:27;;;;;;;3.15;2.95;;;;;;;;;;4980121;28;20270;-60
2022/05/01 04:04:56;;;;;;;2.70;2.50;;;;;;;;;;4980030;28;20230;-61
2022/05/01 04:07:25;;;;;;;2.83;2.63;;;;;;;;;;4980837;28;20200;-61
2022/05/01 04:09:52;;;;;;;3.00;2.67;;;;;;;;;;4990204;28;20534;-61
2022/05/01 04:12:22;;;;;;;2.80;2.60;;;;;;;;;;4979528;28;20355;-61
2022/05/01 04:14:50;;;;;;;2.90;2.70;;;;;;;;;;4991480;28;20609;-61
2022/05/01 04:17:17;;;;;;;2.85;2.65;;;;;;;;;;4999983;28;20270;-60
2022/05/01 04:19:44;;;;;;;2.80;2.60;;;;;;;;;;4999105;28;20452;-60
2022/05/01 04:22:11;;;;;;;2.88;2.67;;;;;;;;;;4999884;28;20604;-61
2022/05/01 04:24:41;;;;;;;2.67;2.47;;;;;;;;;;5000213;28;20310;-60
2022/05/01 04:27:08;;;;;;;2.90;2.70;;;;;;;;;;4986703;28;20214;-60
2022/05/01 04:29:40;;;;;;;2.47;2.38;;;;;;;;;;4979547;28;20246;-60
2022/05/01 04:32:08;;;;;;;2.60;2.40;;;;;;;;;;4980809;28;20215;-61
2022/05/01 04:34:36;;;;;;;2.50;2.30;;;;;;;;;;4980560;28;20208;-61
2022/05/01 04:37:04;;;;;;;2.78;2.58;;;;;;;;;;4986208;28;20625;-60
2022/05/01 04:39:32;;;;;;;3.00;2.80;;;;;;;;;;4983486;28;20196;-61
2022/05/01 04:42:01;;;;;;;2.75;2.55;;;;;;;;;;4980337;28;20207;-61
2022/05/01 04:44:28;;;;;;;2.75;2.50;;;;;;;;;;4980368;28;20215;-60
2022/05/01 04:46:56;;;;;;;2.80;2.60;;;;;;;;;;4980568;28;20212;-61
2022/05/01 04:49:24;;;;;;;3.15;2.60;;;;;;;;;;4980492;28;20231;-61
2022/05/01 04:51:51;;;;;;;2.70;2.50;;;;;;;;;;4980726;28;20242;-60
2022/05/01 04:54:19;;;;;;;2.80;2.60;;;;;;;;;;4980225;28;20212;-60
2022/05/01 04:59:32;;;;;;;3.05;2.80;;;;;;;;;;5000088;28;20202;-60
2022/05/01 05:02:00;;;;;;;2.60;2.40;;;;;;;;;;4997849;28;20482;-61
2022/05/01 05:04:28;;;;;;;2.78;2.58;;;;;;;;;;4999670;28;20207;-60
2022/05/01 05:06:55;;;;;;;3.00;2.80;;;;;;;;;;4999147;28;20225;-60
2022/05/01 05:12:09;;;;;;;2.88;2.67;;;;;;;;;;4999014;28;20198;-60
2022/05/01 05:14:38;;;;;;;3.03;2.83;;;;;;;;;;4999297;28;20621;-60
2022/05/01 05:17:09;;;;;;;2.70;2.50;;;;;;;;;;4984056;28;20204;-60
2022/05/01 05:19:39;;;;;;;2.90;2.70;;;;;;;;;;4979786;28;20334;-60
2022/05/01 05:22:06;;;;;;;2.72;2.53;;;;;;;;;;4986725;28;20299;-61
2022/05/01 05:24:33;;;;;;;2.83;2.63;;;;;;;;;;4982472;28;20254;-60
2022/05/01 05:27:01;;;;;;;2.80;2.60;;;;;;;;;;4986215;28;20210;-61
2022/05/01 05:29:28;;;;;;;2.78;2.58;;;;;;;;;;4989698;28;20227;-61
2022/05/01 05:31:57;;;;;;;2.70;2.50;;;;;;;;;;4979462;28;20637;-60
2022/05/01 05:34:24;;;;;;;2.88;2.67;;;;;;;;;;4979647;28;20612;-60
2022/05/01 05:36:51;;;;;;;2.70;2.50;;;;;;;;;;4984307;28;20207;-60
2022/05/01 05:39:19;;;;;;;2.53;2.33;;;;;;;;;;4987873;28;20504;-60
2022/05/01 05:41:46;;;;;;;2.90;2.60;;;;;;;;;;4994466;28;20214;-61
2022/05/01 05:44:14;;;;;;;2.70;2.50;;;;;;;;;;4998793;28;20619;-60
2022/05/01 05:46:41;;;;;;;2.60;2.40;;;;;;;;;;4998276;28;20209;-60
2022/05/01 05:49:10;;;;;;;2.70;2.50;;;;;;;;;;4998376;28;20206;-61
2022/05/01 05:51:38;;;;;;;2.60;2.40;;;;;;;;;;4998348;28;20203;-61
2022/05/01 05:54:05;;;;;;;2.65;2.45;;;;;;;;;;4998282;28;20222;-60
2022/05/01 05:56:33;;;;;;;2.97;2.78;;;;;;;;;;4992343;28;20200;-61
2022/05/01 05:59:00;;;;;;;2.80;2.60;;;;;;;;;;4978638;28;20199;-60
2022/05/01 06:01:28;;;;;;;2.70;2.50;;;;;;;;;;4978828;28;20250;-61
2022/05/01 06:03:55;;;;;;;2.67;2.47;;;;;;;;;;4983791;28;20214;-60
2022/05/01 06:06:24;;;;;;;2.50;2.30;;;;;;;;;;4978155;28;20196;-61
2022/05/01 06:08:51;;;;;;;2.90;2.70;;;;;;;;;;4989175;28;20203;-61
2022/05/01 06:11:19;;;;;;;2.63;2.42;;;;;;;;;;4993775;28;20659;-60
2022/05/01 06:13:46;;;;;;;2.70;2.50;;;;;;;;;;4978427;28;20207;-62
2022/05/01 06:16:14;;;;;;;2.67;2.47;;;;;;;;;;4983257;28;20209;-60
2022/05/01 06:18:41;;;;;;;2.70;2.50;;;;;;;;;;4984822;28;20204;-61
2022/05/01 06:21:08;;;;;;;2.65;2.45;;;;;;;;;;4978850;28;20203;-61
2022/05/01 06:23:37;;;;;;;2.80;2.60;;;;;;;;;;4997751;28;20490;-60
2022/05/01 06:26:07;;;;;;;2.65;2.45;;;;;;;;;;4997961;28;20230;-61
2022/05/01 06:28:35;;;;;;;2.55;2.35;;;;;;;;;;4997247;28;20207;-61
2022/05/01 06:31:02;;;;;;;2.70;2.55;;;;;;;;;;4996816;28;20700;-61
2022/05/01 06:33:30;;;;;;;2.70;2.50;;;;;;;;;;4995199;28;20234;-61
2022/05/01 06:35:58;;;;;;;2.50;2.30;;;;;;;;;;4977843;28;20204;-60
2022/05/01 06:38:25;;;;;;;2.70;2.50;;;;;;;;;;4978457;28;20207;-61
2022/05/01 06:40:54;;;;;;;2.60;2.40;;;;;;;;;;4984968;28;20211;-61
2022/05/01 06:43:21;;;;;;;2.50;2.30;;;;;;;;;;4989570;28;20200;-61
2022/05/01 06:45:49;;;;;;;2.40;2.30;;;;;;;;;;4978282;28;20218;-60
2022/05/01 06:48:17;;;;;;;2.60;2.40;;;;;;;;;;4977940;28;20601;-60
2022/05/01 06:50:44;;;;;;;2.50;2.30;;;;;;;;;;4978301;28;20228;-61
2022/05/01 06:53:11;;;;;;;2.35;2.22;;;;;;;;;;4977360;28;20211;-61
2022/05/01 06:55:39;;;;;;;2.55;2.35;;;;;;;;;;4977724;28;20207;-61
2022/05/01 06:58:08;;;;;;;2.45;2.25;;;;;;;;;;4978966;28;20329;-61
2022/05/01 07:00:36;;;;;;;2.50;2.30;;;;;;;;;;4977600;28;20258;-61
2022/05/01 07:03:04;;;;;;;2.60;2.40;;;;;;;;;;4977278;28;20632;-61
2022/05/01 07:05:31;;;;;;;2.65;2.45;;;;;;;;;;4977044;28;20554;-61
2022/05/01 07:07:58;;;;;;;2.40;2.20;;;;;;;;;;4980271;28;20199;-60
2022/05/01 07:10:26;;;;;;;2.03;1.92;;;;;;;;;;4996365;28;20403;-60
2022/05/01 07:12:53;;;;;;;2.20;2.10;;;;;;;;;;4993474;28;20595;-61
2022/05/01 07:15:22;;;;;;;1.95;1.85;;;;;;;;;;4978324;28;20204;-61
2022/05/01 07:17:49;;;;;;;2.13;1.98;;;;;;;;;;4996022;28;20478;-61
2022/05/01 07:20:17;;;;;;;2.20;2.10;;;;;;;;;;4987293;28;20226;-61
2022/05/01 07:22:44;;;;;;;2.25;2.15;;;;;;;;;;4989978;28;20196;-61
2022/05/01 07:25:12;;;;;;;2.20;2.10;;;;;;;;;;4997274;28;20207;-61
2022/05/01 07:27:39;;;;;;;2.40;2.20;;;;;;;;;;4996017;28;20214;-61
2022/05/01 07:30:07;;;;;;;2.28;2.15;;;;;;;;;;4996086;28;20604;-61
2022/05/01 07:32:36;;;;;;;2.28;2.08;;;;;;;;;;4981345;28;20211;-61
2022/05/01 07:35:03;;;;;;;2.22;2.00;;;;;;;;;;4976755;28;20212;-61
2022/05/01 07:37:31;;;;;;;2.22;2.13;;;;;;;;;;4976198;28;20211;-61
2022/05/01 07:39:59;;;;;;;2.30;2.10;;;;;;;;;;4980142;28;20203;-61
2022/05/01 07:42:27;;;;;;;2.35;2.15;;;;;;;;;;4976273;28;20676;-61
2022/05/01 07:44:54;;;;;;;2.50;2.00;;;;;;;;;;4983726;28;20222;-61
2022/05/01 07:47:21;;;;;;;2.08;1.98;;;;;;;;;;4995669;28;20207;-61
2022/05/01 07:49:50;;;;;;;1.80;1.70;;;;;;;;;;4995327;28;20203;-61
2022/05/01 07:52:18;;;;;;;1.90;1.80;;;;;;;;;;4995945;28;20238;-61
2022/05/01 07:54:45;;;;;;;2.08;1.98;;;;;;;;;;4982920;28;20242;-61
2022/05/01 07:57:13;;;;;;;2.35;2.13;;;;;;;;;;4975751;28;20222;-61
2022/05/01 07:59:40;;;;;;;2.08;1.80;;;;;;;;;;4976735;28;20218;-61
2022/05/01 08:02:07;;;;;;;2.10;2.00;;;;;;;;;;4975757;28;20200;-61
2022/05/01 08:04:34;;;;;;;1.92;1.83;;;;;;;;;;4976231;28;20211;-61
2022/05/01 08:07:04;;;;;;;1.80;1.70;;;;;;;;;;4989634;28;20651;-61
2022/05/01 08:09:31;;;;;;;1.88;1.77;;;;;;;;;;4987134;28;20214;-61
2022/05/01 08:11:59;;;;;;;2.30;2.10;;;;;;;;;;4998457;28;20238;-61
2022/05/01 08:14:26;;;;;;;2.08;1.95;;;;;;;;;;4992471;28;20331;-61
2022/05/01 08:16:54;;;;;;;1.90;1.80;;;;;;;;;;4979234;28;20208;-61
2022/05/01 08:22:08;;;;;;;2.10;1.90;;;;;;;;;;4979637;28;20266;-61
2022/05/01 08:24:36;;;;;;;3.88;1.80;;;;;;;;;;4978899;28;20199;-61
2022/05/01 08:27:06;;;;;;;1.92;1.83;;;;;;;;;;4989352;28;20581;-61
2022/05/01 08:29:34;;;;;;;2.08;1.92;;;;;;;;;;4999078;28;20211;-61
2022/05/01 08:32:03;;;;;;;1.83;1.73;;;;;;;;;;4978821;28;20326;-61
2022/05/01 08:34:30;;;;;;;1.92;1.77;;;;;;;;;;4980332;28;20506;-61
2022/05/01 08:36:57;;;;;;;2.00;1.90;;;;;;;;;;4979598;28;20597;-61
2022/05/01 08:39:26;;;;;;;2.22;2.03;;;;;;;;;;4979654;28;20222;-61
2022/05/01 08:41:53;;;;;;;2.47;1.80;;;;;;;;;;4974459;28;20584;-61
2022/05/01 08:44:23;;;;;;;2.30;1.90;;;;;;;;;;4978879;28;20208;-61
2022/05/01 08:46:58;;;;;;;2.35;1.70;;;;;;;;;;4963201;28;20204;-61
2022/05/01 08:49:27;;;;;;;2.10;1.90;;;;;;;;;;4959336;29;20601;-61
2022/05/01 08:51:55;;;;;;;2.42;1.80;;;;;;;;;;4959741;28;20572;-61
2022/05/01 08:54:24;;;;;;;1.92;1.83;;;;;;;;;;4959536;29;20216;-61
2022/05/01 08:56:53;;;;;;;2.30;1.88;;;;;;;;;;4960178;28;20469;-61
2022/05/01 08:59:21;;;;;;;1.73;1.63;;;;;;;;;;4958582;29;20218;-61
2022/05/01 09:01:52;;;;;;;1.83;1.73;;;;;;;;;;4959174;28;20240;-61
2022/05/01 09:04:19;;;;;;;2.00;1.90;;;;;;;;;;4959740;29;20323;-61
2022/05/01 09:06:47;;;;;;;2.25;1.80;;;;;;;;;;4959466;28;20279;-61
2022/05/01 09:09:18;;;;;;;2.15;1.92;;;;;;;;;;4970629;28;20214;-61
2022/05/01 09:14:32;;;;;;;1.80;1.70;;;;;;;;;;4977966;28;20195;-61
2022/05/01 09:17:13;;;;;;;1.77;1.67;;;;;;;;;;4976389;28;20203;-61
2022/05/01 09:19:41;;;;;;;1.90;1.80;;;;;;;;;;4971035;28;20203;-61
2022/05/01 09:22:08;;;;;;;2.05;1.85;;;;;;;;;;4976975;28;20623;-61
2022/05/01 09:24:36;;;;;;;1.90;1.80;;;;;;;;;;4975616;28;20467;-61
2022/05/01 09:27:03;;;;;;;2.42;2.00;;;;;;;;;;4967370;28;20211;-61
2022/05/01 09:29:35;;;;;;;2.35;2.00;;;;;;;;;;4967188;28;20593;-61
2022/05/01 09:32:03;;;;;;;2.10;1.90;;;;;;;;;;4977532;28;20233;-61
2022/05/01 09:34:32;;;;;;;1.77;1.67;;;;;;;;;;4977559;28;20215;-61
2022/05/01 09:37:00;;;;;;;2.78;2.15;;;;;;;;;;4977328;28;20227;-61
2022/05/01 09:39:28;;;;;;;2.00;1.90;;;;;;;;;;4963396;28;20205;-61
2022/05/01 09:41:56;;;;;;;3.00;2.10;;;;;;;;;;4962579;28;20203;-61
2022/05/01 09:44:24;;;;;;;2.05;1.80;;;;;;;;;;4977777;28;20214;-61
2022/05/01 09:46:54;;;;;;;1.90;1.80;;;;;;;;;;4951018;28;20255;-61
2022/05/01 09:49:21;;;;;;;2.20;1.90;;;;;;;;;;4966561;28;20204;-61
2022/05/01 09:51:55;;;;;;;1.90;1.80;;;;;;;;;;4978471;28;20233;-61
2022/05/01 09:54:24;;;;;;;2.20;2.00;;;;;;;;;;4977815;28;20590;-61
2022/05/01 09:56:52;;;;;;;2.72;1.88;;;;;;;;;;4963715;28;20204;-61
2022/05/01 09:59:21;;;;;;;1.77;1.67;;;;;;;;;;4958135;28;20200;-61
2022/05/01 10:02:02;;;;;;;2.00;1.90;;;;;;;;;;4958514;28;20247;-61
2022/05/01 10:04:29;;;;;;;2.13;1.65;;;;;;;;;;4975456;28;20218;-61
2022/05/01 10:06:58;;;;;;;2.33;2.13;;;;;;;;;;4977382;28;20212;-61
2022/05/01 10:09:26;;;;;;;2.33;2.05;;;;;;;;;;4963609;28;20731;-61
2022/05/01 10:11:55;;;;;;;1.80;1.70;;;;;;;;;;4963051;28;20629;-61
2022/05/01 10:14:23;;;;;;;2.10;1.95;;;;;;;;;;4966214;28;20204;-61
2022/05/01 10:16:50;;;;;;;2.10;2.00;;;;;;;;;;4959149;29;20215;-61
2022/05/01 10:19:19;;;;;;;2.10;1.85;;;;;;;;;;4968860;28;20604;-61
2022/05/01 10:21:48;;;;;;;1.90;1.70;;;;;;;;;;4972195;28;20200;-61
2022/05/01 10:24:16;;;;;;;2.28;1.88;;;;;;;;;;4973589;28;20201;-61
2022/05/01 10:26:47;;;;;;;2.10;1.90;;;;;;;;;;4976662;28;20204;-61
2022/05/01 10:29:32;;;;;;;2.50;2.30;;;;;;;;;;4977275;28;20581;-61
2022/05/01 10:32:24;;;;;;;2.25;2.05;;;;;;;;;;4976575;28;20223;-60
2022/05/01 10:35:15;;;;;;;2.28;2.03;;;;;;;;;;4977240;28;20212;-61
2022/05/01 10:37:51;;;;;;;2.00;1.90;;;;;;;;;;4975304;28;20213;-61
2022/05/01 10:40:19;;;;;;;2.30;2.10;;;;;;;;;;4978048;28;20207;-61
2022/05/01 10:42:48;;;;;;;2.40;2.20;;;;;;;;;;4965318;28;20196;-61
2022/05/01 10:45:34;;;;;;;2.72;2.10;;;;;;;;;;4957450;28;20196;-61
2022/05/01 10:48:02;;;;;;;2.10;2.00;;;;;;;;;;4976677;28;20203;-61
2022/05/01 10:50:30;;;;;;;2.15;2.05;;;;;;;;;;4976612;28;20202;-61
2022/05/01 10:53:04;;;;;;;2.38;2.17;;;;;;;;;;4969016;28;20231;-61
2022/05/01 10:55:42;;;;;;;2.42;2.22;;;;;;;;;;4957857;29;20215;-61
2022/05/01 10:58:23;;;;;;;2.20;2.00;;;;;;;;;;4957379;28;20211;-61
2022/05/01 11:00:52;;;;;;;2.00;1.90;;;;;;;;;;4957445;28;20218;-61
2022/05/01 11:03:27;;;;;;;1.80;1.70;;;;;;;;;;4969554;28;20196;-61
2022/05/01 11:06:08;;;;;;;2.20;2.00;;;;;;;;;;4953238;29;20436;-61
2022/05/01 11:08:36;;;;;;;2.30;2.10;;;;;;;;;;4957929;28;20201;-61
2022/05/01 11:11:05;;;;;;;2.47;2.28;;;;;;;;;;4955690;28;20243;-61
2022/05/01 11:13:33;;;;;;;2.17;1.98;;;;;;;;;;4955719;29;20208;-61
2022/05/01 11:16:01;;;;;;;2.40;2.20;;;;;;;;;;4961582;28;20214;-61
2022/05/01 11:18:29;;;;;;;2.22;2.05;;;;;;;;;;4974929;28;20204;-61
2022/05/01 11:21:18;;;;;;;2.05;1.95;;;;;;;;;;4974444;28;20204;-61
2022/05/01 11:23:45;;;;;;;2.22;2.13;;;;;;;;;;4974254;28;20212;-61
2022/05/01 11:26:14;;;;;;;2.78;2.45;;;;;;;;;;4966737;28;20203;-60
2022/05/01 11:28:46;;;;;;;1.98;1.88;;;;;;;;;;4964463;28;20493;-61
2022/05/01 11:31:32;;;;;;;3.13;2.35;;;;;;;;;;4969331;28;20523;-61
2022/05/01 11:34:19;;;;;;;3.17;2.25;;;;;;;;;;4975125;28;20218;-61
2022/05/01 11:36:54;;;;;;;2.72;2.15;;;;;;;;;;4974882;28;20208;-61
2022/05/01 11:39:22;;;;;;;3.75;2.30;;;;;;;;;;4984979;28;20507;-61
2022/05/01 11:42:00;;;;;;;2.40;2.20;;;;;;;;;;4990380;28;20199;-61
2022/05/01 11:44:29;;;;;;;2.30;2.10;;;;;;;;;;4979702;28;20214;-61
2022/05/01 11:46:59;;;;;;;2.85;2.25;;;;;;;;;;4978774;28;20286;-61
2022/05/01 11:49:29;;;;;;;3.38;2.40;;;;;;;;;;4979283;28;20238;-61
2022/05/01 11:51:59;;;;;;;2.83;2.28;;;;;;;;;;4986481;28;20231;-61
2022/05/01 11:54:28;;;;;;;2.30;2.10;;;;;;;;;;4996478;28;20253;-61
2022/05/01 12:02:26;;;;;;;2.33;2.13;;;;;;;;;;4996482;28;20351;-61
2022/05/01 12:04:59;;;;;;;2.45;2.35;;;;;;;;;;4997748;28;20495;-61
2022/05/01 12:07:27;;;;;;;3.45;2.40;;;;;;;;;;4997516;28;20238;-61
2022/05/01 12:09:55;;;;;;;2.38;2.17;;;;;;;;;;4990458;28;20207;-61
2022/05/01 12:12:28;;;;;;;2.50;2.30;;;;;;;;;;4978247;28;20527;-61
2022/05/01 12:14:57;;;;;;;2.83;2.17;;;;;;;;;;4989518;28;20221;-62
2022/05/01 12:17:25;;;;;;;2.60;2.40;;;;;;;;;;4997247;28;20247;-62
2022/05/01 12:19:54;;;;;;;3.95;2.50;;;;;;;;;;4997910;28;20218;-61
2022/05/01 12:22:23;;;;;;;3.00;2.70;;;;;;;;;;4998287;28;20600;-61
2022/05/01 12:24:55;;;;;;;2.67;2.47;;;;;;;;;;4997388;28;20207;-61
2022/05/01 12:27:26;;;;;;;3.05;2.40;;;;;;;;;;4984408;28;20230;-61
2022/05/01 12:29:55;;;;;;;2.60;2.40;;;;;;;;;;4978457;28;20204;-61
2022/05/01 12:32:22;;;;;;;2.88;2.63;;;;;;;;;;4978657;28;20239;-61
2022/05/01 12:34:57;;;;;;;2.60;2.35;;;;;;;;;;4978649;28;20204;-61
2022/05/01 12:37:27;;;;;;;3.28;2.63;;;;;;;;;;4977929;28;20431;-61
2022/05/01 12:40:00;;;;;;;2.85;2.25;;;;;;;;;;4979966;28;20219;-61
2022/05/01 12:45:13;;;;;;;2.47;2.30;;;;;;;;;;4979589;28;20203;-61
2022/05/01 12:47:42;;;;;;;2.80;2.60;;;;;;;;;;4995230;28;20195;-61
2022/05/01 12:50:12;;;;;;;2.75;2.20;;;;;;;;;;4997148;28;20458;-61
2022/05/01 12:52:40;;;;;;;2.47;2.28;;;;;;;;;;4995783;28;20249;-61
2022/05/01 12:55:14;;;;;;;2.50;2.30;;;;;;;;;;4997107;28;20199;-61
2022/05/01 12:57:43;;;;;;;2.50;2.30;;;;;;;;;;4987677;28;20238;-61
2022/05/01 13:00:10;;;;;;;2.90;2.60;;;;;;;;;;4977065;28;20208;-61
2022/05/01 13:02:38;;;;;;;2.58;2.30;;;;;;;;;;4976153;28;20203;-61
2022/05/01 13:05:07;;;;;;;2.40;2.20;;;;;;;;;;4976704;28;20221;-62
2022/05/01 13:07:35;;;;;;;2.60;2.40;;;;;;;;;;4977398;28;20211;-61
2022/05/01 13:10:03;;;;;;;2.40;2.20;;;;;;;;;;4975835;28;20207;-61
2022/05/01 13:12:34;;;;;;;2.47;2.28;;;;;;;;;;4975947;28;20236;-61
2022/05/01 13:15:04;;;;;;;2.60;2.40;;;;;;;;;;4976584;28;20218;-61
2022/05/01 13:17:32;;;;;;;2.20;2.00;;;;;;;;;;4992094;28;20457;-61
2022/05/01 13:20:00;;;;;;;2.42;2.22;;;;;;;;;;4995527;28;20210;-61
2022/05/01 13:22:27;;;;;;;2.53;2.33;;;;;;;;;;4976000;28;20196;-61
2022/05/01 13:24:57;;;;;;;2.50;2.30;;;;;;;;;;4976208;28;20207;-61
2022/05/01 13:27:24;;;;;;;2.40;2.20;;;;;;;;;;4987690;28;20553;-61
2022/05/01 13:29:53;;;;;;;2.40;2.20;;;;;;;;;;4975202;28;20485;-61
2022/05/01 13:32:21;;;;;;;2.13;1.80;;;;;;;;;;4983302;28;20233;-61
2022/05/01 13:34:48;;;;;;;2.42;2.22;;;;;;;;;;4995970;28;20226;-61
2022/05/01 13:37:17;;;;;;;2.97;2.22;;;;;;;;;;4995857;28;20386;-61
2022/05/01 13:45:16;;;;;;;2.00;1.90;;;;;;;;;;4994082;28;20206;-61
2022/05/01 13:47:43;;;;;;;2.40;2.20;;;;;;;;;;4976659;28;20558;-61
2022/05/01 13:50:11;;;;;;;2.58;2.38;;;;;;;;;;4984221;28;20199;-61
2022/05/01 13:52:38;;;;;;;2.15;2.05;;;;;;;;;;4993642;28;20215;-61
2022/05/01 13:55:06;;;;;;;2.17;2.08;;;;;;;;;;4996024;28;20274;-61
2022/05/01 13:57:34;;;;;;;2.20;2.10;;;;;;;;;;4994582;28;20565;-61
2022/05/01 14:00:02;;;;;;;2.17;2.08;;;;;;;;;;4980768;28;20200;-61
2022/05/01 14:02:31;;;;;;;2.22;2.13;;;;;;;;;;4973307;28;20236;-61
2022/05/01 14:05:00;;;;;;;2.10;2.00;;;;;;;;;;4976315;28;20226;-61
2022/05/01 14:07:27;;;;;;;2.10;1.92;;;;;;;;;;4992673;28;20210;-61
2022/05/01 14:09:54;;;;;;;2.20;2.10;;;;;;;;;;4975911;28;20203;-61
2022/05/01 14:12:22;;;;;;;2.33;2.13;;;;;;;;;;4986978;28;20238;-61
2022/05/01 14:14:49;;;;;;;2.38;2.17;;;;;;;;;;4975084;28;20215;-61
2022/05/01 14:17:17;;;;;;;2.45;2.28;;;;;;;;;;4980995;28;20385;-61
2022/05/01 14:19:49;;;;;;;2.35;2.17;;;;;;;;;;4993365;28;20536;-61
2022/05/01 14:22:20;;;;;;;2.47;2.28;;;;;;;;;;4994235;28;20233;-61
2022/05/01 14:24:48;;;;;;;2.40;2.20;;;;;;;;;;4994903;28;20581;-61
2022/05/01 14:27:16;;;;;;;2.47;2.28;;;;;;;;;;4994524;28;20211;-61
2022/05/01 14:29:43;;;;;;;2.03;1.92;;;;;;;;;;4984871;28;20199;-61
2022/05/01 14:32:14;;;;;;;2.30;2.10;;;;;;;;;;4974775;28;20245;-61
2022/05/01 14:34:44;;;;;;;2.22;2.13;;;;;;;;;;4975503;28;20211;-61
2022/05/01 14:37:19;;;;;;;2.20;2.10;;;;;;;;;;4974421;28;20297;-61
2022/05/01 14:39:48;;;;;;;2.20;2.10;;;;;;;;;;4975125;28;20217;-61
2022/05/01 14:42:16;;;;;;;2.30;2.20;;;;;;;;;;4989019;28;20383;-60
2022/05/01 14:44:48;;;;;;;2.20;2.10;;;;;;;;;;4995782;28;20256;-61
2022/05/01 14:47:21;;;;;;;2.22;2.13;;;;;;;;;;4982413;28;20211;-61
2022/05/01 14:49:51;;;;;;;2.08;1.98;;;;;;;;;;4976036;28;20595;-61
2022/05/01 14:52:20;;;;;;;2.22;2.13;;;;;;;;;;4975620;28;20270;-61
2022/05/01 14:54:49;;;;;;;2.38;2.28;;;;;;;;;;4976037;28;20274;-61
2022/05/01 14:57:20;;;;;;;2.10;2.00;;;;;;;;;;4990575;28;20213;-61
2022/05/01 15:08:08;;;;;;;2.30;2.10;;;;;;;;;;4978364;28;20198;-61
2022/05/01 15:10:36;;;;;;;2.47;2.28;;;;;;;;;;4995165;28;20215;-60
2022/05/01 15:13:06;;;;;;;2.25;2.05;;;;;;;;;;4994739;28;20231;-61
2022/05/01 15:15:37;;;;;;;2.00;1.90;;;;;;;;;;4997258;28;20207;-61
2022/05/01 15:18:08;;;;;;;2.47;1.92;;;;;;;;;;4977608;28;20665;-61
2022/05/01 15:20:36;;;;;;;2.10;2.00;;;;;;;;;;4980112;28;20342;-61
2022/05/01 15:23:12;;;;;;;2.83;2.05;;;;;;;;;;4979826;28;20375;-61
2022/05/01 15:25:42;;;;;;;2.03;1.90;;;;;;;;;;4989425;28;20209;-61
2022/05/01 15:28:11;;;;;;;2.47;2.15;;;;;;;;;;4982746;28;20203;-61
2022/05/01 15:30:40;;;;;;;2.25;2.13;;;;;;;;;;4982218;28;20257;-60
2022/05/01 15:35:55;;;;;;;2.17;2.00;;;;;;;;;;4983269;28;20213;-61
2022/05/01 15:38:25;;;;;;;2.13;2.00;;;;;;;;;;4998345;28;20207;-60
2022/05/01 15:40:54;;;;;;;2.20;2.10;;;;;;;;;;4988941;28;20235;-61
2022/05/01 15:43:21;;;;;;;2.05;1.95;;;;;;;;;;4977852;28;20200;-61
2022/05/01 15:45:54;;;;;;;2.40;2.08;;;;;;;;;;4980601;28;20257;-61